Time;durP1;ratioP1;P1;durP2;ratioP2;P2;SDS_P1;SDS_P2;PMS_P1;PMS_P2;Temp;Humidity;BMP_temperature;BMP_pressure;BME280_temperature;BME280_humidity;BME280_pressure;Samples;Min_cycle;Max_cycle;Signal;HPM_P1;HPM_P2
2021/09/27 00:01:39;;;;;;;1.50;0.90;;;17.30;98.20;;;;;;5022222;28;20551;-78
2021/09/27 00:04:05;;;;;;;1.50;1.00;;;17.30;98.20;;;;;;5018377;28;20511;-78
2021/09/27 00:06:32;;;;;;;1.50;0.90;;;17.30;98.20;;;;;;5017363;28;20499;-78
2021/09/27 00:09:00;;;;;;;1.50;0.90;;;17.30;98.20;;;;;;5020343;28;20460;-76
2021/09/27 00:11:27;;;;;;;1.50;0.90;;;17.30;98.20;;;;;;5016311;28;20539;-78
2021/09/27 00:13:57;;;;;;;1.50;0.97;;;17.30;98.20;;;;;;5023300;28;20463;-77
2021/09/27 00:16:25;;;;;;;1.53;1.00;;;17.30;98.20;;;;;;5022963;28;21014;-77
2021/09/27 00:18:52;;;;;;;1.50;1.00;;;17.30;98.20;;;;;;5015658;28;20478;-79
2021/09/27 00:21:23;;;;;;;1.50;1.00;;;17.30;98.20;;;;;;5020137;28;20466;-76
2021/09/27 00:23:50;;;;;;;1.50;1.00;;;17.30;98.20;;;;;;5019306;28;20474;-78
2021/09/27 00:26:20;;;;;;;1.50;0.97;;;17.30;98.20;;;;;;5019875;28;20486;-79
2021/09/27 00:28:47;;;;;;;1.50;0.90;;;17.30;98.20;;;;;;5014700;28;20472;-79
2021/09/27 00:31:14;;;;;;;1.50;0.90;;;17.30;98.20;;;;;;5023262;28;20459;-78
2021/09/27 00:33:42;;;;;;;1.50;1.00;;;17.30;98.20;;;;;;5016998;28;20496;-76
2021/09/27 00:36:09;;;;;;;1.50;1.00;;;17.30;98.20;;;;;;5017737;28;20484;-78
2021/09/27 00:38:37;;;;;;;1.53;1.00;;;17.30;98.20;;;;;;5018782;28;20468;-76
2021/09/27 00:41:06;;;;;;;1.50;1.00;;;17.20;98.20;;;;;;5022701;28;20472;-78
2021/09/27 00:43:37;;;;;;;1.50;1.00;;;17.20;98.20;;;;;;5018718;28;20987;-78
2021/09/27 00:46:07;;;;;;;2.83;1.53;;;17.20;98.20;;;;;;5014496;28;20484;-78
2021/09/27 00:48:34;;;;;;;1.50;1.00;;;17.20;98.20;;;;;;5017490;28;20487;-78
2021/09/27 00:51:03;;;;;;;1.50;0.97;;;17.20;98.20;;;;;;5016632;28;20834;-78
2021/09/27 00:53:35;;;;;;;1.50;1.00;;;17.20;98.20;;;;;;5015897;28;20464;-78
2021/09/27 00:56:03;;;;;;;1.50;0.90;;;17.20;98.20;;;;;;5016182;28;20582;-80
2021/09/27 00:58:32;;;;;;;1.50;0.90;;;17.20;98.20;;;;;;5014412;28;20457;-76
2021/09/27 01:01:01;;;;;;;1.50;1.00;;;17.20;98.20;;;;;;5011330;28;20492;-77
2021/09/27 01:03:29;;;;;;;1.50;1.00;;;17.30;98.20;;;;;;5015147;28;20472;-78
2021/09/27 01:06:09;;;;;;;1.50;1.00;;;17.30;98.20;;;;;;5017135;28;20484;-78
2021/09/27 01:08:49;;;;;;;1.50;0.93;;;17.30;98.20;;;;;;5020085;28;20649;-76
2021/09/27 01:11:27;;;;;;;1.50;1.00;;;17.40;98.20;;;;;;5010597;28;20479;-76
2021/09/27 01:14:18;;;;;;;1.50;0.90;;;17.40;98.20;;;;;;5011445;28;20467;-77
2021/09/27 01:16:57;;;;;;;1.50;0.90;;;17.40;98.20;;;;;;5019585;28;20479;-78
2021/09/27 01:20:02;;;;;;;1.53;1.00;;;17.40;98.20;;;;;;5009935;28;20463;-78
2021/09/27 01:22:47;;;;;;;1.50;0.97;;;17.40;98.20;;;;;;5015657;28;20467;-75
2021/09/27 01:25:38;;;;;;;1.50;1.00;;;17.40;98.20;;;;;;5009028;28;20635;-77
2021/09/27 01:28:38;;;;;;;1.50;0.90;;;17.40;98.20;;;;;;5017733;28;20658;-77
2021/09/27 01:31:32;;;;;;;1.50;1.00;;;17.40;98.20;;;;;;5009096;28;20476;-78
2021/09/27 01:34:08;;;;;;;1.60;1.10;;;17.50;98.20;;;;;;4990486;28;20833;-77
2021/09/27 01:36:43;;;;;;;1.50;0.97;;;17.40;98.20;;;;;;5013530;28;20510;-77
2021/09/27 01:39:14;;;;;;;1.57;1.00;;;17.40;98.20;;;;;;5009679;28;20474;-78
2021/09/27 01:41:50;;;;;;;1.50;1.00;;;17.40;98.20;;;;;;5009089;28;20468;-78
2021/09/27 01:44:22;;;;;;;1.50;0.90;;;17.40;98.20;;;;;;5017756;28;20463;-78
2021/09/27 01:46:55;;;;;;;1.50;0.90;;;17.40;98.20;;;;;;5014043;28;20831;-77
2021/09/27 01:49:32;;;;;;;1.50;1.00;;;17.40;98.20;;;;;;5018054;28;20470;-77
2021/09/27 01:52:02;;;;;;;1.50;0.90;;;17.30;98.20;;;;;;5008572;28;20468;-77
2021/09/27 01:54:34;;;;;;;1.50;1.00;;;17.30;98.20;;;;;;5010406;28;20470;-77
2021/09/27 01:57:09;;;;;;;1.50;1.00;;;17.30;98.20;;;;;;5009081;28;20535;-78
2021/09/27 01:59:46;;;;;;;1.50;1.00;;;17.30;98.20;;;;;;5011742;28;20846;-77
2021/09/27 02:02:21;;;;;;;1.50;1.00;;;17.30;98.20;;;;;;5005103;28;20471;-77
2021/09/27 02:05:00;;;;;;;1.50;1.00;;;17.30;98.20;;;;;;5012474;28;20521;-77
2021/09/27 02:07:30;;;;;;;1.50;1.00;;;17.30;98.20;;;;;;5005364;28;20495;-76
2021/09/27 02:10:02;;;;;;;1.50;0.90;;;17.30;98.20;;;;;;5005794;28;20473;-77
2021/09/27 02:12:33;;;;;;;1.50;0.90;;;17.30;98.20;;;;;;5011135;28;20842;-77
2021/09/27 02:15:09;;;;;;;1.50;1.00;;;17.30;98.20;;;;;;5013606;28;20462;-78
2021/09/27 02:17:41;;;;;;;1.50;1.00;;;17.20;98.20;;;;;;5006757;28;20865;-78
2021/09/27 02:20:16;;;;;;;1.50;1.00;;;17.20;98.20;;;;;;5015604;28;20464;-78
2021/09/27 02:22:50;;;;;;;1.50;1.00;;;17.20;98.20;;;;;;5018818;28;20565;-77
2021/09/27 02:25:22;;;;;;;1.50;1.00;;;17.20;98.20;;;;;;5002368;28;20471;-77
2021/09/27 02:27:51;;;;;;;1.50;0.90;;;17.20;98.20;;;;;;5008816;28;20949;-77
2021/09/27 02:30:24;;;;;;;1.50;0.97;;;17.20;98.20;;;;;;5015134;28;20456;-78
2021/09/27 02:32:59;;;;;;;1.50;0.97;;;17.20;98.20;;;;;;5013815;28;20452;-78
2021/09/27 02:35:32;;;;;;;1.50;0.90;;;17.20;98.20;;;;;;5009731;28;20456;-77
2021/09/27 02:38:13;;;;;;;1.50;0.90;;;17.20;98.20;;;;;;5015556;28;20842;-78
2021/09/27 02:40:46;;;;;;;1.50;0.97;;;17.10;98.20;;;;;;5022097;28;20463;-77
2021/09/27 02:43:14;;;;;;;1.50;1.00;;;17.10;98.20;;;;;;5014433;28;20483;-76
2021/09/27 02:45:43;;;;;;;1.50;1.00;;;17.10;98.20;;;;;;5010120;28;20473;-76
2021/09/27 02:48:17;;;;;;;1.50;0.90;;;17.10;98.20;;;;;;5013793;28;20494;-77
2021/09/27 02:50:49;;;;;;;1.50;0.90;;;17.00;98.20;;;;;;5015175;28;20464;-76
2021/09/27 02:53:16;;;;;;;1.50;1.00;;;17.00;98.20;;;;;;5013382;28;20471;-77
2021/09/27 02:56:02;;;;;;;1.50;1.00;;;17.00;98.20;;;;;;5014657;28;20551;-77
2021/09/27 02:58:36;;;;;;;1.50;0.90;;;17.00;98.20;;;;;;5017726;28;20462;-79
2021/09/27 03:01:08;;;;;;;1.50;1.03;;;17.00;98.20;;;;;;5017224;28;20494;-78
2021/09/27 03:03:48;;;;;;;1.50;0.90;;;17.00;98.20;;;;;;5012115;28;20562;-78
2021/09/27 03:06:27;;;;;;;1.50;1.00;;;17.00;98.20;;;;;;5016781;28;21014;-76
2021/09/27 03:09:03;;;;;;;1.50;0.90;;;17.00;98.20;;;;;;5024251;28;20567;-79
2021/09/27 03:12:05;;;;;;;1.53;1.00;;;17.00;98.20;;;;;;5015697;28;20474;-78
2021/09/27 03:14:47;;;;;;;1.53;1.00;;;17.00;98.20;;;;;;5004525;28;20470;-78
2021/09/27 03:17:19;;;;;;;1.50;1.00;;;17.00;98.20;;;;;;5011118;28;20880;-77
2021/09/27 03:20:01;;;;;;;1.50;1.00;;;16.90;98.20;;;;;;5013997;28;20471;-77
2021/09/27 03:22:39;;;;;;;1.50;1.00;;;16.90;98.20;;;;;;5010484;28;20951;-76
2021/09/27 03:25:24;;;;;;;1.60;1.00;;;16.90;98.20;;;;;;5014817;28;20534;-78
2021/09/27 03:28:04;;;;;;;1.50;1.00;;;16.80;98.20;;;;;;5017037;28;20899;-77
2021/09/27 03:30:38;;;;;;;1.50;1.00;;;16.80;98.20;;;;;;5014615;28;20491;-79
2021/09/27 03:33:09;;;;;;;1.50;0.90;;;16.70;98.20;;;;;;5007547;28;20961;-79
2021/09/27 03:36:09;;;;;;;1.50;1.00;;;16.70;98.20;;;;;;5013495;28;20464;-78
2021/09/27 03:38:44;;;;;;;1.50;1.00;;;16.70;98.20;;;;;;5011495;28;20463;-78
2021/09/27 03:41:20;;;;;;;1.50;0.90;;;16.70;98.20;;;;;;5009855;28;20460;-78
2021/09/27 03:43:59;;;;;;;1.50;1.00;;;16.60;98.20;;;;;;5015898;28;20460;-78
2021/09/27 03:46:36;;;;;;;1.50;1.00;;;16.60;98.20;;;;;;5016020;28;20649;-78
2021/09/27 03:49:09;;;;;;;1.50;1.00;;;16.60;98.20;;;;;;5006847;28;20879;-77
2021/09/27 03:51:41;;;;;;;1.70;1.10;;;16.60;98.20;;;;;;5017652;28;20494;-77
2021/09/27 03:54:15;;;;;;;1.57;1.10;;;16.60;98.20;;;;;;5022794;28;20463;-77
2021/09/27 03:56:47;;;;;;;1.50;0.90;;;16.60;98.20;;;;;;5011142;28;20549;-78
2021/09/27 03:59:18;;;;;;;1.50;1.00;;;16.60;98.20;;;;;;5009064;28;21039;-76
2021/09/27 04:01:52;;;;;;;1.50;1.00;;;16.60;98.20;;;;;;5011734;28;20841;-77
2021/09/27 04:04:33;;;;;;;1.50;1.00;;;16.60;98.20;;;;;;5019864;28;20469;-77
2021/09/27 04:07:15;;;;;;;1.60;1.00;;;16.50;98.20;;;;;;5021174;28;20479;-76
2021/09/27 04:09:49;;;;;;;1.57;1.00;;;16.60;98.20;;;;;;5009694;28;20480;-77
2021/09/27 04:12:28;;;;;;;1.50;1.00;;;16.60;98.20;;;;;;5026463;28;20543;-77
2021/09/27 04:15:07;;;;;;;1.50;0.90;;;16.60;98.20;;;;;;5015663;28;20460;-76
2021/09/27 04:17:45;;;;;;;1.53;1.00;;;16.60;98.20;;;;;;5010342;28;20792;-76
2021/09/27 04:20:17;;;;;;;1.50;0.90;;;16.60;98.20;;;;;;5055818;22;20502;-77
2021/09/27 04:23:00;;;;;;;1.50;1.00;;;16.60;98.20;;;;;;5049069;28;20462;-79
2021/09/27 04:25:37;;;;;;;1.80;1.43;;;16.70;98.20;;;;;;5048939;28;20470;-76
2021/09/27 04:28:42;;;;;;;1.53;1.00;;;16.70;98.20;;;;;;5030749;28;20537;-77
2021/09/27 04:31:16;;;;;;;1.50;0.90;;;16.70;98.20;;;;;;5030192;28;20477;-77
2021/09/27 04:34:05;;;;;;;1.50;0.90;;;16.80;98.20;;;;;;5040902;28;20462;-77
2021/09/27 04:36:35;;;;;;;1.50;1.00;;;16.80;98.20;;;;;;5036065;28;20492;-77
2021/09/27 04:39:08;;;;;;;1.60;1.00;;;16.80;98.20;;;;;;5031210;28;20459;-78
2021/09/27 04:42:03;;;;;;;1.50;1.00;;;16.80;98.20;;;;;;5038391;28;20468;-76
2021/09/27 04:44:46;;;;;;;1.50;0.90;;;16.80;98.20;;;;;;5032171;28;20983;-76
2021/09/27 04:47:17;;;;;;;1.50;0.90;;;16.80;98.20;;;;;;5043358;28;21003;-76
2021/09/27 04:50:03;;;;;;;1.53;1.00;;;16.80;98.20;;;;;;5034365;28;20479;-78
2021/09/27 04:52:39;;;;;;;1.50;1.00;;;16.80;98.20;;;;;;5035364;28;20470;-77
2021/09/27 04:55:34;;;;;;;1.50;1.00;;;16.80;98.20;;;;;;5034095;28;20465;-76
2021/09/27 04:58:20;;;;;;;1.50;1.00;;;16.80;98.20;;;;;;5027801;28;20468;-78
2021/09/27 05:01:03;;;;;;;1.50;1.00;;;16.80;98.20;;;;;;5037698;28;20459;-78
2021/09/27 05:03:45;;;;;;;1.50;0.90;;;16.80;98.20;;;;;;5037873;28;21204;-77
2021/09/27 05:06:42;;;;;;;1.50;1.00;;;16.80;98.20;;;;;;5036527;28;20490;-77
2021/09/27 05:09:23;;;;;;;1.87;1.67;;;16.80;98.20;;;;;;5035782;28;20487;-76
2021/09/27 05:12:14;;;;;;;1.50;0.97;;;16.80;98.20;;;;;;5034713;28;20831;-77
2021/09/27 05:14:55;;;;;;;1.50;1.00;;;16.80;98.20;;;;;;5019503;28;21487;-76
2021/09/27 05:17:48;;;;;;;1.50;0.90;;;16.90;98.20;;;;;;5037000;28;20482;-76
2021/09/27 05:20:57;;;;;;;1.50;0.90;;;16.90;98.20;;;;;;4999506;28;20890;-77
2021/09/27 05:23:30;;;;;;;1.50;1.00;;;16.90;98.20;;;;;;5012527;28;20542;-77
2021/09/27 05:26:34;;;;;;;1.50;1.10;;;17.00;98.20;;;;;;5029952;28;20479;-76
2021/09/27 05:29:10;;;;;;;1.50;1.00;;;17.00;98.20;;;;;;5020587;28;21024;-77
2021/09/27 05:32:23;;;;;;;1.50;1.00;;;17.10;98.20;;;;;;5032303;28;20486;-77
2021/09/27 05:35:06;;;;;;;1.50;1.00;;;17.10;98.20;;;;;;5029088;28;20471;-77
2021/09/27 05:37:53;;;;;;;1.50;0.90;;;17.10;98.20;;;;;;5025041;28;20513;-78
2021/09/27 05:40:30;;;;;;;1.50;1.00;;;17.10;98.20;;;;;;5028885;28;20546;-76
2021/09/27 05:43:28;;;;;;;1.53;1.10;;;17.20;98.20;;;;;;5030302;28;20494;-79
2021/09/27 05:46:07;;;;;;;1.50;0.93;;;17.20;98.20;;;;;;5029608;28;20513;-76
2021/09/27 05:48:42;;;;;;;1.60;1.20;;;17.20;98.20;;;;;;5027735;28;20479;-77
2021/09/27 05:51:15;;;;;;;1.50;1.00;;;17.20;98.20;;;;;;5031479;28;20700;-77
2021/09/27 05:53:52;;;;;;;1.50;1.00;;;17.20;98.20;;;;;;5033624;28;20459;-77
2021/09/27 05:56:26;;;;;;;1.50;0.93;;;17.20;98.20;;;;;;5020890;28;21049;-77
2021/09/27 05:59:03;;;;;;;1.80;1.40;;;17.10;98.20;;;;;;5027268;28;20462;-77
2021/09/27 06:01:42;;;;;;;1.50;1.00;;;17.10;98.20;;;;;;5032879;28;20533;-76
2021/09/27 06:04:26;;;;;;;1.50;1.00;;;17.00;98.20;;;;;;5027012;28;21071;-77
2021/09/27 06:07:02;;;;;;;1.50;1.00;;;17.00;98.20;;;;;;5033062;28;20479;-77
2021/09/27 06:09:53;;;;;;;1.50;0.90;;;17.00;98.20;;;;;;5034599;28;20479;-78
2021/09/27 06:12:26;;;;;;;1.50;1.00;;;17.00;98.20;;;;;;5023420;28;20467;-76
2021/09/27 06:14:57;;;;;;;1.53;1.00;;;17.10;98.20;;;;;;5028777;28;20578;-78
2021/09/27 06:17:38;;;;;;;1.50;0.97;;;17.10;98.20;;;;;;5019896;28;20516;-77
2021/09/27 06:20:11;;;;;;;1.50;1.00;;;17.10;98.20;;;;;;5028555;28;20474;-77
2021/09/27 06:22:57;;;;;;;1.50;1.00;;;17.20;98.20;;;;;;5035438;28;20552;-78
2021/09/27 06:25:29;;;;;;;1.53;1.00;;;17.30;98.20;;;;;;5023777;28;20453;-78
2021/09/27 06:28:07;;;;;;;1.53;1.00;;;17.40;98.20;;;;;;5021773;28;20984;-78
2021/09/27 06:30:42;;;;;;;1.50;1.00;;;17.40;98.20;;;;;;5027387;28;20469;-77
2021/09/27 06:33:16;;;;;;;1.50;0.90;;;17.50;98.20;;;;;;5028062;28;20494;-76
2021/09/27 06:35:47;;;;;;;1.50;1.00;;;17.60;98.20;;;;;;5030547;28;20573;-77
2021/09/27 06:38:16;;;;;;;1.50;1.00;;;17.70;98.20;;;;;;5032345;28;20550;-77
2021/09/27 06:40:47;;;;;;;1.50;1.00;;;17.80;98.20;;;;;;5028236;28;20954;-78
2021/09/27 06:43:20;;;;;;;1.53;1.00;;;17.80;98.20;;;;;;5031807;28;20481;-77
2021/09/27 06:45:48;;;;;;;1.50;0.90;;;17.90;98.20;;;;;;5031238;28;20487;-76
2021/09/27 06:48:15;;;;;;;1.50;1.00;;;18.00;98.20;;;;;;5027540;28;20464;-79
2021/09/27 06:50:44;;;;;;;1.53;1.00;;;18.00;98.20;;;;;;5025081;28;20471;-78
2021/09/27 06:53:11;;;;;;;1.50;1.00;;;18.10;98.20;;;;;;5028500;28;20465;-78
2021/09/27 06:55:38;;;;;;;1.50;0.90;;;18.10;98.20;;;;;;5027606;28;20939;-76
2021/09/27 06:58:05;;;;;;;1.50;0.90;;;18.20;98.20;;;;;;5033859;28;20460;-78
2021/09/27 07:00:32;;;;;;;1.57;1.00;;;18.20;98.20;;;;;;5044494;28;20553;-77
2021/09/27 07:03:00;;;;;;;1.50;0.90;;;18.30;98.20;;;;;;5032341;28;20553;-77
2021/09/27 07:05:27;;;;;;;1.50;1.00;;;18.30;98.20;;;;;;5029454;28;20970;-78
2021/09/27 07:07:56;;;;;;;1.57;1.00;;;18.30;98.20;;;;;;5034946;28;20492;-76
2021/09/27 07:10:25;;;;;;;1.60;1.00;;;18.30;98.20;;;;;;5047578;28;20489;-75
2021/09/27 07:12:52;;;;;;;2.67;1.83;;;18.30;98.20;;;;;;5025409;28;20496;-76
2021/09/27 07:15:21;;;;;;;1.50;0.90;;;18.30;98.20;;;;;;5031148;28;20471;-76
2021/09/27 07:17:48;;;;;;;1.50;0.90;;;18.30;98.20;;;;;;5026814;28;20505;-76
2021/09/27 07:20:18;;;;;;;1.53;1.00;;;18.30;98.20;;;;;;5037357;28;20578;-77
2021/09/27 07:22:45;;;;;;;1.50;1.00;;;18.30;98.20;;;;;;5039789;28;20466;-77
2021/09/27 07:25:17;;;;;;;1.50;1.00;;;18.40;98.20;;;;;;5035044;28;20533;-75
2021/09/27 07:27:45;;;;;;;1.87;1.57;;;18.60;98.20;;;;;;5039338;28;21089;-77
2021/09/27 07:30:13;;;;;;;1.60;1.00;;;18.70;98.20;;;;;;5036735;28;20487;-76
2021/09/27 07:32:41;;;;;;;1.60;1.13;;;18.90;98.20;;;;;;5028070;28;20466;-77
2021/09/27 07:35:11;;;;;;;1.70;1.37;;;19.00;98.20;;;;;;5024676;28;20553;-75
2021/09/27 07:37:40;;;;;;;1.50;1.00;;;19.10;98.20;;;;;;5028373;28;20836;-75
2021/09/27 07:40:10;;;;;;;1.50;0.97;;;19.10;98.20;;;;;;5032359;28;20883;-76
2021/09/27 07:42:39;;;;;;;1.50;1.00;;;19.10;98.20;;;;;;5025507;28;20768;-76
2021/09/27 07:45:10;;;;;;;1.53;0.90;;;19.20;98.20;;;;;;5028822;28;20474;-76
2021/09/27 07:47:36;;;;;;;1.50;0.90;;;19.30;98.20;;;;;;5026864;28;20491;-77
2021/09/27 07:50:04;;;;;;;1.53;0.90;;;19.40;98.20;;;;;;5026256;28;20492;-76
2021/09/27 07:52:32;;;;;;;4.10;3.80;;;19.60;98.20;;;;;;5024107;28;20475;-75
2021/09/27 07:54:59;;;;;;;1.50;0.90;;;19.80;98.20;;;;;;5029076;28;20472;-76
2021/09/27 07:57:26;;;;;;;1.60;1.00;;;19.90;98.20;;;;;;5028903;28;20479;-75
2021/09/27 07:59:54;;;;;;;1.57;0.90;;;20.00;98.20;;;;;;5025000;28;20567;-76
2021/09/27 08:02:22;;;;;;;1.60;1.00;;;20.20;98.20;;;;;;5023077;28;20467;-76
2021/09/27 08:04:49;;;;;;;1.57;0.97;;;20.30;98.20;;;;;;5021216;28;20857;-76
2021/09/27 08:07:16;;;;;;;1.60;1.20;;;20.40;98.20;;;;;;5033858;28;20578;-76
2021/09/27 08:09:43;;;;;;;1.53;0.97;;;20.50;98.20;;;;;;5028891;28;20499;-76
2021/09/27 08:12:11;;;;;;;1.50;0.93;;;20.50;98.20;;;;;;5023627;28;20467;-75
2021/09/27 08:14:38;;;;;;;1.57;0.90;;;20.40;98.20;;;;;;5025300;28;20472;-77
2021/09/27 08:17:07;;;;;;;1.57;0.90;;;20.40;98.20;;;;;;5029936;28;21367;-76
2021/09/27 08:19:37;;;;;;;1.50;1.00;;;20.30;98.20;;;;;;5026014;28;20475;-77
2021/09/27 08:22:05;;;;;;;1.57;1.00;;;20.40;98.20;;;;;;5037697;28;21010;-77
2021/09/27 08:24:32;;;;;;;2.07;1.10;;;20.50;98.20;;;;;;5034987;28;20797;-75
2021/09/27 08:27:01;;;;;;;1.53;0.90;;;20.60;98.20;;;;;;5030580;28;20487;-76
2021/09/27 08:29:28;;;;;;;1.60;1.10;;;20.70;98.20;;;;;;5025567;28;20487;-73
2021/09/27 08:31:55;;;;;;;1.50;0.90;;;20.80;98.20;;;;;;5032590;28;20478;-76
2021/09/27 08:34:23;;;;;;;1.53;0.90;;;20.90;98.20;;;;;;5033363;28;20550;-76
2021/09/27 08:36:51;;;;;;;1.57;0.90;;;21.10;98.20;;;;;;5025956;28;20573;-76
2021/09/27 08:39:18;;;;;;;1.50;0.90;;;21.10;98.20;;;;;;5026907;28;20499;-76
2021/09/27 08:41:53;;;;;;;1.57;1.00;;;21.20;98.20;;;;;;5030589;28;20470;-76
2021/09/27 08:44:33;;;;;;;1.53;0.90;;;21.30;98.20;;;;;;5030041;28;20471;-75
2021/09/27 08:47:05;;;;;;;1.50;0.90;;;21.50;98.20;;;;;;5030123;28;20487;-74
2021/09/27 08:49:42;;;;;;;1.50;0.90;;;21.60;97.70;;;;;;5032809;28;20912;-75
2021/09/27 08:52:12;;;;;;;2.13;1.93;;;21.70;97.70;;;;;;5031594;28;20988;-75
2021/09/27 08:54:40;;;;;;;1.50;0.90;;;21.90;97.40;;;;;;5031693;28;20489;-76
2021/09/27 08:57:13;;;;;;;1.50;0.90;;;21.90;97.40;;;;;;5029901;28;20792;-75
2021/09/27 08:59:50;;;;;;;1.50;0.90;;;22.00;97.30;;;;;;5023920;28;20521;-76
2021/09/27 09:02:30;;;;;;;1.50;0.90;;;22.10;96.70;;;;;;5028261;28;20490;-76
2021/09/27 09:05:10;;;;;;;1.70;1.50;;;22.10;96.60;;;;;;5028950;28;20478;-75
2021/09/27 09:07:45;;;;;;;1.57;1.00;;;22.10;95.90;;;;;;5028899;28;20484;-76
2021/09/27 09:10:16;;;;;;;1.50;0.90;;;22.00;96.60;;;;;;5026053;28;20486;-76
2021/09/27 09:12:47;;;;;;;1.50;0.90;;;22.10;97.10;;;;;;5026093;28;20459;-75
2021/09/27 09:15:18;;;;;;;1.50;0.90;;;22.00;97.00;;;;;;5028209;28;20495;-75
2021/09/27 09:17:51;;;;;;;1.50;0.90;;;21.90;97.10;;;;;;5026825;28;20510;-75
2021/09/27 09:20:23;;;;;;;1.50;0.90;;;21.90;96.80;;;;;;5022847;28;20471;-76
2021/09/27 09:22:51;;;;;;;1.70;1.00;;;21.80;97.40;;;;;;5035120;28;20467;-75
2021/09/27 09:25:25;;;;;;;1.50;0.90;;;21.80;97.60;;;;;;5026403;28;20467;-76
2021/09/27 09:27:53;;;;;;;1.50;0.90;;;21.80;97.80;;;;;;5027241;28;20483;-76
2021/09/27 09:30:22;;;;;;;1.50;0.90;;;21.90;97.20;;;;;;5026700;28;20506;-76
2021/09/27 09:32:52;;;;;;;1.50;0.90;;;22.00;97.60;;;;;;5028229;28;20463;-74
2021/09/27 09:35:25;;;;;;;1.50;0.90;;;22.10;97.40;;;;;;5023545;28;20645;-76
2021/09/27 09:37:55;;;;;;;1.50;0.87;;;22.20;96.30;;;;;;5028799;28;21060;-76
2021/09/27 09:40:29;;;;;;;1.50;0.90;;;22.20;96.50;;;;;;5027409;28;20980;-75
2021/09/27 09:43:00;;;;;;;1.50;0.90;;;22.30;96.20;;;;;;5029045;28;20889;-76
2021/09/27 09:45:29;;;;;;;1.50;0.90;;;22.30;96.80;;;;;;5023745;28;20467;-75
2021/09/27 09:48:12;;;;;;;1.50;0.90;;;22.40;96.20;;;;;;5025731;28;21026;-74
2021/09/27 09:50:41;;;;;;;1.50;1.00;;;22.60;95.70;;;;;;5029466;28;20915;-76
2021/09/27 09:53:29;;;;;;;1.50;0.80;;;22.60;95.60;;;;;;5023444;28;20470;-76
2021/09/27 09:56:00;;;;;;;1.50;0.90;;;22.70;95.50;;;;;;5031495;28;20486;-76
2021/09/27 09:58:38;;;;;;;1.50;0.90;;;22.70;95.10;;;;;;5025767;28;20796;-76
2021/09/27 10:01:08;;;;;;;1.50;0.90;;;22.60;94.50;;;;;;5026435;28;20455;-75
2021/09/27 10:03:38;;;;;;;1.50;0.90;;;22.60;95.10;;;;;;5022930;28;20551;-76
2021/09/27 10:06:13;;;;;;;1.60;1.17;;;22.60;95.50;;;;;;5030374;28;20490;-76
2021/09/27 10:08:47;;;;;;;1.50;0.90;;;22.50;95.50;;;;;;5028240;28;21012;-76
2021/09/27 10:11:23;;;;;;;1.50;0.90;;;22.50;95.40;;;;;;5027232;28;20499;-75
2021/09/27 10:13:52;;;;;;;1.60;1.30;;;22.40;95.90;;;;;;5032361;28;20459;-75
2021/09/27 10:16:39;;;;;;;1.50;1.00;;;22.40;96.30;;;;;;5027063;28;20873;-75
2021/09/27 10:19:23;;;;;;;1.50;0.90;;;22.40;96.10;;;;;;5023269;28;20534;-77
2021/09/27 10:21:58;;;;;;;1.50;0.90;;;22.50;96.50;;;;;;5022357;28;20486;-77
2021/09/27 10:24:34;;;;;;;1.50;0.90;;;22.50;96.60;;;;;;5025179;28;20470;-76
2021/09/27 10:27:07;;;;;;;1.50;0.90;;;22.60;96.40;;;;;;5026151;28;20508;-77
2021/09/27 10:29:35;;;;;;;1.50;0.90;;;22.70;96.00;;;;;;5026036;28;20487;-76
2021/09/27 10:32:13;;;;;;;1.50;0.90;;;22.70;95.50;;;;;;5027753;28;20895;-75
2021/09/27 10:34:40;;;;;;;1.50;0.90;;;22.70;95.40;;;;;;5023632;28;20493;-76
2021/09/27 10:37:13;;;;;;;1.50;1.00;;;22.70;94.50;;;;;;5024708;28;20804;-76
2021/09/27 10:39:40;;;;;;;1.50;0.90;;;22.70;94.70;;;;;;5024558;28;20452;-76
2021/09/27 10:42:10;;;;;;;1.50;0.90;;;22.70;93.90;;;;;;5023157;28;20926;-75
2021/09/27 10:44:42;;;;;;;1.50;0.90;;;22.70;93.80;;;;;;5016849;28;21218;-76
2021/09/27 10:47:13;;;;;;;1.50;0.90;;;22.70;92.80;;;;;;5024056;28;20522;-75
2021/09/27 10:49:46;;;;;;;1.50;0.90;;;22.70;92.50;;;;;;5025620;28;20495;-76
2021/09/27 10:52:37;;;;;;;1.50;0.93;;;22.70;92.60;;;;;;5032658;28;20478;-77
2021/09/27 10:55:13;;;;;;;1.50;1.00;;;22.70;92.90;;;;;;5023063;28;20478;-76
2021/09/27 10:57:53;;;;;;;1.50;0.90;;;22.70;92.30;;;;;;5027534;28;20599;-76
2021/09/27 11:00:35;;;;;;;1.50;0.90;;;22.70;92.60;;;;;;5031519;28;20467;-76
2021/09/27 11:03:09;;;;;;;1.50;0.90;;;22.80;92.40;;;;;;5027099;28;20470;-77
2021/09/27 11:05:48;;;;;;;1.50;0.90;;;22.90;92.20;;;;;;5030021;28;21109;-76
2021/09/27 11:08:30;;;;;;;1.50;0.90;;;23.00;92.50;;;;;;5035575;28;20469;-76
2021/09/27 11:10:57;;;;;;;1.50;1.00;;;23.10;92.80;;;;;;5031743;28;21001;-76
2021/09/27 11:13:40;;;;;;;1.50;0.90;;;23.40;92.60;;;;;;5028836;28;20495;-76
2021/09/27 11:16:17;;;;;;;1.50;0.90;;;23.50;91.00;;;;;;5035489;28;20486;-75
2021/09/27 11:18:54;;;;;;;1.50;0.90;;;23.70;90.40;;;;;;5034087;28;21306;-76
2021/09/27 11:21:40;;;;;;;1.50;0.90;;;23.70;89.60;;;;;;5026644;28;20489;-75
2021/09/27 11:24:45;;;;;;;1.50;0.90;;;23.80;90.30;;;;;;5025373;28;20458;-76
2021/09/27 11:27:15;;;;;;;1.60;1.10;;;23.90;90.50;;;;;;5035460;28;20889;-76
2021/09/27 11:29:49;;;;;;;1.50;0.90;;;23.90;89.50;;;;;;5031012;28;20483;-76
2021/09/27 11:32:46;;;;;;;1.50;0.90;;;23.90;89.10;;;;;;5023665;28;20880;-75
2021/09/27 11:35:39;;;;;;;1.50;0.90;;;23.90;88.40;;;;;;5019555;28;21226;-75
2021/09/27 11:38:18;;;;;;;1.50;0.90;;;23.90;87.80;;;;;;5025705;28;20518;-76
2021/09/27 11:40:54;;;;;;;1.50;0.90;;;23.80;88.10;;;;;;5024521;28;20467;-76
2021/09/27 11:43:27;;;;;;;1.50;0.90;;;23.80;88.10;;;;;;5033544;28;20463;-75
2021/09/27 11:45:58;;;;;;;1.50;0.90;;;23.80;88.60;;;;;;5026409;28;20965;-75
2021/09/27 11:48:44;;;;;;;1.50;0.90;;;23.90;88.50;;;;;;5027744;28;20463;-76
2021/09/27 11:51:40;;;;;;;1.50;0.90;;;24.00;88.30;;;;;;5024520;28;20529;-75
2021/09/27 11:54:33;;;;;;;1.50;0.90;;;24.20;87.30;;;;;;5013537;28;20495;-76
2021/09/27 11:57:11;;;;;;;1.50;0.90;;;24.20;87.70;;;;;;5027941;28;20522;-75
2021/09/27 11:59:46;;;;;;;1.50;0.90;;;24.20;87.10;;;;;;5036317;28;21023;-76
2021/09/27 12:02:30;;;;;;;1.50;0.90;;;24.20;87.80;;;;;;5034907;28;20470;-74
2021/09/27 12:05:20;;;;;;;1.50;0.90;;;24.20;88.00;;;;;;5029958;28;20471;-74
2021/09/27 12:07:52;;;;;;;1.50;0.80;;;24.10;88.50;;;;;;5026288;28;20897;-75
2021/09/27 12:10:26;;;;;;;1.50;0.90;;;24.10;88.10;;;;;;5041233;28;21152;-75
2021/09/27 12:12:57;;;;;;;1.50;0.90;;;24.10;88.40;;;;;;5031153;28;20521;-75
2021/09/27 12:15:28;;;;;;;1.50;0.90;;;24.20;88.40;;;;;;5025965;28;20950;-75
2021/09/27 12:17:55;;;;;;;1.50;0.90;;;24.20;87.60;;;;;;5029027;28;21057;-77
2021/09/27 12:20:24;;;;;;;1.50;0.90;;;24.20;87.70;;;;;;5027630;28;20522;-75
2021/09/27 12:22:54;;;;;;;1.50;0.90;;;24.10;87.00;;;;;;5029677;28;20995;-77
2021/09/27 12:25:25;;;;;;;1.50;1.00;;;24.00;87.60;;;;;;5027844;28;20487;-76
2021/09/27 12:28:01;;;;;;;1.50;1.00;;;23.90;87.80;;;;;;5028847;28;20502;-76
2021/09/27 12:30:29;;;;;;;1.50;0.90;;;23.80;88.10;;;;;;5030336;28;20494;-77
2021/09/27 12:33:01;;;;;;;1.50;0.90;;;23.80;87.80;;;;;;5029657;28;20467;-74
2021/09/27 12:35:32;;;;;;;1.50;0.90;;;23.90;87.60;;;;;;5025196;28;20480;-78
2021/09/27 12:37:59;;;;;;;1.50;0.90;;;24.00;87.50;;;;;;5030427;28;20479;-75
2021/09/27 12:40:34;;;;;;;1.50;0.90;;;24.00;87.70;;;;;;5025817;28;20491;-77
2021/09/27 12:43:08;;;;;;;1.50;0.90;;;24.00;87.60;;;;;;5029430;28;20820;-75
2021/09/27 12:45:39;;;;;;;1.50;0.90;;;24.10;87.50;;;;;;5021065;28;20471;-74
2021/09/27 12:48:23;;;;;;;1.50;0.90;;;24.10;87.50;;;;;;5035546;28;20471;-76
2021/09/27 12:50:55;;;;;;;1.50;1.03;;;24.10;87.20;;;;;;5033062;28;20843;-77
2021/09/27 12:53:28;;;;;;;1.50;0.90;;;24.00;87.00;;;;;;5030922;28;20863;-76
2021/09/27 12:55:56;;;;;;;1.50;0.90;;;24.00;86.40;;;;;;5036230;28;21041;-77
2021/09/27 12:58:35;;;;;;;1.50;0.90;;;23.90;87.20;;;;;;5032794;28;20467;-77
2021/09/27 13:01:06;;;;;;;1.47;0.90;;;23.90;87.00;;;;;;5033911;28;20467;-76
2021/09/27 13:03:33;;;;;;;1.50;0.90;;;23.90;87.50;;;;;;5034128;28;20466;-76
2021/09/27 13:06:11;;;;;;;1.50;0.90;;;23.90;88.40;;;;;;5036117;28;20885;-75
2021/09/27 13:08:46;;;;;;;1.50;0.90;;;23.80;87.80;;;;;;5032665;28;20462;-76
2021/09/27 13:11:28;;;;;;;1.50;0.90;;;23.70;87.40;;;;;;5025589;28;20882;-77
2021/09/27 13:14:05;;;;;;;1.50;0.90;;;23.70;88.00;;;;;;5029078;28;20830;-77
2021/09/27 13:16:36;;;;;;;1.50;1.10;;;23.60;88.50;;;;;;5028932;28;20576;-76
2021/09/27 13:19:03;;;;;;;1.50;0.90;;;23.60;88.20;;;;;;5027940;28;20550;-76
2021/09/27 13:21:36;;;;;;;1.50;0.90;;;23.70;88.90;;;;;;5021156;28;20455;-76
2021/09/27 13:24:06;;;;;;;1.50;0.80;;;23.60;88.90;;;;;;5037299;28;20821;-76
2021/09/27 13:26:37;;;;;;;1.50;0.90;;;23.60;88.70;;;;;;5028130;28;20530;-76
2021/09/27 13:29:22;;;;;;;1.50;0.90;;;23.50;89.30;;;;;;5028623;28;20486;-75